Time;durP1;ratioP1;P1;durP2;ratioP2;P2;SDS_P1;SDS_P2;PMS_P1;PMS_P2;Temp;Humidity;BMP_temperature;BMP_pressure;BME280_temperature;BME280_humidity;BME280_pressure;Samples;Min_cycle;Max_cycle;Signal;HPM_P1;HPM_P2
2021/08/14 00:00:08;;;;;;;19.27;7.72;;;15.20;99.90;;;;;;5074661;28;20762;-74
2021/08/14 00:02:35;;;;;;;18.67;8.27;;;15.20;99.90;;;;;;5072748;28;20048;-74
2021/08/14 00:05:02;;;;;;;16.67;7.60;;;15.10;99.90;;;;;;5080700;28;20055;-76
2021/08/14 00:07:28;;;;;;;15.57;7.57;;;15.10;99.90;;;;;;5071565;28;20028;-74
2021/08/14 00:09:54;;;;;;;17.35;7.55;;;15.10;99.90;;;;;;5072481;28;20033;-72
2021/08/14 00:12:20;;;;;;;15.45;6.95;;;15.10;99.90;;;;;;5047402;28;20045;-72
2021/08/14 00:14:46;;;;;;;21.63;8.90;;;15.10;99.90;;;;;;5075035;28;20457;-72
2021/08/14 00:17:12;;;;;;;17.05;7.68;;;15.20;99.90;;;;;;5054998;28;20071;-73
2021/08/14 00:19:41;;;;;;;13.27;7.10;;;15.20;99.90;;;;;;5068729;28;20464;-72
2021/08/14 00:22:07;;;;;;;17.92;7.72;;;15.20;99.90;;;;;;5074612;28;20097;-73
2021/08/14 00:24:33;;;;;;;23.42;8.30;;;15.20;99.90;;;;;;5074273;28;20059;-72
2021/08/14 00:26:59;;;;;;;19.95;8.45;;;15.20;99.90;;;;;;5058149;28;20033;-72
2021/08/14 00:29:25;;;;;;;22.25;8.93;;;15.30;99.90;;;;;;5051191;28;20046;-73
2021/08/14 00:31:51;;;;;;;20.27;8.50;;;15.30;99.90;;;;;;5044737;28;20037;-73
2021/08/14 00:34:17;;;;;;;18.92;7.57;;;15.30;99.90;;;;;;5076138;28;20033;-73
2021/08/14 00:36:43;;;;;;;16.95;8.00;;;15.40;99.90;;;;;;5068785;28;20044;-74
2021/08/14 00:39:11;;;;;;;19.98;7.53;;;15.40;99.90;;;;;;5053583;28;20414;-74
2021/08/14 00:41:37;;;;;;;21.75;8.25;;;15.40;99.90;;;;;;5059428;28;20055;-72
2021/08/14 00:44:04;;;;;;;17.48;8.00;;;15.50;99.90;;;;;;5074033;28;20036;-73
2021/08/14 00:46:31;;;;;;;15.13;7.57;;;15.50;99.90;;;;;;5060098;28;20094;-73
2021/08/14 00:48:59;;;;;;;16.35;6.75;;;15.50;99.90;;;;;;5074122;28;20048;-73
2021/08/14 00:51:25;;;;;;;17.60;7.20;;;15.50;99.90;;;;;;5077276;28;20474;-77
2021/08/14 00:53:51;;;;;;;20.67;7.80;;;15.60;99.90;;;;;;5070222;28;20043;-75
2021/08/14 00:56:26;;;;;;;19.33;7.45;;;15.60;99.90;;;;;;5071668;28;20090;-76
2021/08/14 00:58:53;;;;;;;16.63;7.25;;;15.60;99.90;;;;;;5078841;28;20095;-75
2021/08/14 01:01:21;;;;;;;17.95;8.45;;;15.60;99.90;;;;;;5075687;28;20045;-73
2021/08/14 01:03:49;;;;;;;15.00;7.55;;;15.60;99.90;;;;;;5075806;28;20040;-73
2021/08/14 01:06:16;;;;;;;14.13;7.03;;;15.60;99.90;;;;;;5073089;28;20037;-75
2021/08/14 01:08:43;;;;;;;22.00;7.70;;;15.60;99.90;;;;;;5059638;28;20060;-76
2021/08/14 01:11:13;;;;;;;18.13;8.07;;;15.60;99.90;;;;;;5071569;28;20036;-75
2021/08/14 01:13:40;;;;;;;15.48;7.43;;;15.60;99.90;;;;;;5069429;28;20072;-76
2021/08/14 01:16:08;;;;;;;17.70;8.02;;;15.60;99.90;;;;;;5075784;28;20043;-75
2021/08/14 01:18:36;;;;;;;15.48;8.63;;;15.60;99.90;;;;;;5068175;28;20696;-75
2021/08/14 01:21:02;;;;;;;16.10;8.23;;;15.60;99.90;;;;;;5065913;28;20040;-75
2021/08/14 01:23:28;;;;;;;17.92;7.70;;;15.60;99.90;;;;;;5076763;28;20036;-74
2021/08/14 01:26:21;;;;;;;20.85;7.72;;;15.60;99.90;;;;;;5075387;28;20040;-74
2021/08/14 01:28:50;;;;;;;19.95;8.20;;;15.60;99.90;;;;;;5070512;28;20045;-75
2021/08/14 01:31:19;;;;;;;19.83;7.55;;;15.50;99.90;;;;;;5078574;28;20514;-73
2021/08/14 01:33:45;;;;;;;18.83;8.27;;;15.60;99.90;;;;;;5070598;28;20059;-74
2021/08/14 01:36:14;;;;;;;18.65;7.65;;;15.60;99.90;;;;;;5068930;28;20064;-73
2021/08/14 01:38:48;;;;;;;19.42;7.32;;;15.60;99.90;;;;;;5071382;28;20094;-73
2021/08/14 01:41:15;;;;;;;18.75;7.43;;;15.50;99.90;;;;;;5074728;28;20036;-74
2021/08/14 01:44:07;;;;;;;20.33;8.18;;;15.50;99.90;;;;;;5072938;28;20123;-74
2021/08/14 01:46:37;;;;;;;14.57;7.50;;;15.60;99.90;;;;;;5093880;28;20482;-74
2021/08/14 01:49:03;;;;;;;22.10;7.75;;;15.50;99.90;;;;;;5082633;28;20432;-76
2021/08/14 01:51:31;;;;;;;22.85;8.90;;;15.50;99.90;;;;;;5069720;28;20082;-76
2021/08/14 01:53:59;;;;;;;16.67;8.13;;;15.50;99.90;;;;;;5073339;28;21236;-75
2021/08/14 01:56:27;;;;;;;20.42;8.65;;;15.50;99.90;;;;;;5075512;28;20406;-73
2021/08/14 01:58:53;;;;;;;18.17;8.00;;;15.50;99.90;;;;;;5073083;28;20750;-73
2021/08/14 02:01:19;;;;;;;16.73;8.05;;;15.40;99.90;;;;;;5074960;28;20044;-73
2021/08/14 02:03:49;;;;;;;17.98;8.07;;;15.40;99.90;;;;;;5082831;28;20067;-73
2021/08/14 02:06:20;;;;;;;16.98;7.65;;;15.40;99.90;;;;;;5066844;28;20036;-73
2021/08/14 02:08:47;;;;;;;19.88;7.80;;;15.40;99.90;;;;;;5081393;28;20123;-73
2021/08/14 02:11:19;;;;;;;20.10;8.02;;;15.40;99.90;;;;;;5071676;28;20051;-73
2021/08/14 02:13:46;;;;;;;19.25;8.68;;;15.40;99.90;;;;;;5076233;28;20040;-73
2021/08/14 02:16:12;;;;;;;18.92;7.95;;;15.40;99.90;;;;;;5067679;28;20181;-73
2021/08/14 02:18:39;;;;;;;18.58;8.25;;;15.40;99.90;;;;;;5079579;28;20121;-73
2021/08/14 02:21:06;;;;;;;15.30;7.85;;;15.40;99.90;;;;;;5082953;28;20073;-73
2021/08/14 02:23:32;;;;;;;21.98;8.27;;;15.40;99.90;;;;;;5066692;28;20040;-73
2021/08/14 02:25:58;;;;;;;19.08;7.78;;;15.40;99.90;;;;;;5074932;28;20039;-73
2021/08/14 02:28:24;;;;;;;18.83;7.90;;;15.40;99.90;;;;;;5060020;28;20040;-73
2021/08/14 02:30:50;;;;;;;21.48;7.68;;;15.40;99.90;;;;;;5062617;28;20036;-73
2021/08/14 02:33:16;;;;;;;20.13;7.03;;;15.40;99.90;;;;;;5067917;28;20493;-73
2021/08/14 02:35:43;;;;;;;20.52;7.45;;;15.40;99.90;;;;;;5054802;28;20117;-72
2021/08/14 02:38:09;;;;;;;18.80;7.78;;;15.30;99.90;;;;;;5081842;28;20048;-72
2021/08/14 02:40:36;;;;;;;21.27;8.18;;;15.30;99.90;;;;;;5070646;28;20040;-73
2021/08/14 02:43:14;;;;;;;22.05;7.28;;;15.30;99.90;;;;;;5083522;28;20125;-72
2021/08/14 02:45:40;;;;;;;20.20;8.50;;;15.30;99.90;;;;;;5079977;28;20127;-73
2021/08/14 02:48:07;;;;;;;21.20;7.72;;;15.40;99.90;;;;;;5077237;28;20059;-73
2021/08/14 02:50:33;;;;;;;18.40;7.80;;;15.30;99.90;;;;;;5080338;28;20110;-73
2021/08/14 02:53:02;;;;;;;21.90;8.45;;;15.30;99.90;;;;;;5083710;28;20089;-75
2021/08/14 02:55:28;;;;;;;18.25;7.43;;;15.30;99.90;;;;;;5075756;28;20051;-72
2021/08/14 02:57:54;;;;;;;16.65;7.32;;;15.30;99.90;;;;;;5084977;28;20036;-72
2021/08/14 03:00:20;;;;;;;20.58;8.27;;;15.40;99.90;;;;;;5075057;28;20101;-72
2021/08/14 03:02:46;;;;;;;18.83;7.43;;;15.40;99.90;;;;;;5082459;28;20146;-72
2021/08/14 03:05:12;;;;;;;15.73;7.35;;;15.30;99.90;;;;;;5079042;28;20039;-73
2021/08/14 03:07:41;;;;;;;19.42;7.53;;;15.30;99.90;;;;;;5077607;28;20523;-73
2021/08/14 03:10:08;;;;;;;16.23;7.85;;;15.30;99.90;;;;;;5077560;28;20441;-74
2021/08/14 03:12:35;;;;;;;22.85;8.65;;;15.30;99.90;;;;;;5074156;28;20102;-73
2021/08/14 03:15:02;;;;;;;19.48;7.65;;;15.30;99.90;;;;;;5057861;28;20495;-73
2021/08/14 03:17:29;;;;;;;21.40;7.57;;;15.30;99.90;;;;;;5062935;28;20048;-73
2021/08/14 03:19:55;;;;;;;20.45;7.53;;;15.30;99.90;;;;;;5076593;28;20039;-73
2021/08/14 03:22:21;;;;;;;19.40;7.95;;;15.30;99.90;;;;;;5070383;28;20041;-73
2021/08/14 03:24:47;;;;;;;22.25;8.32;;;15.30;99.90;;;;;;5052859;28;20079;-73
2021/08/14 03:27:13;;;;;;;17.95;8.10;;;15.30;99.90;;;;;;5075644;28;20596;-73
2021/08/14 03:29:39;;;;;;;23.17;8.35;;;15.40;99.90;;;;;;5068095;28;20036;-73
2021/08/14 03:32:05;;;;;;;24.40;8.60;;;15.40;99.90;;;;;;5051243;28;20406;-73
2021/08/14 03:34:31;;;;;;;19.85;8.77;;;15.40;99.90;;;;;;5069239;28;20667;-73
2021/08/14 03:36:57;;;;;;;23.27;9.00;;;15.40;99.90;;;;;;5063534;28;20044;-73
2021/08/14 03:39:23;;;;;;;19.10;8.38;;;15.40;99.90;;;;;;5069607;28;20577;-73
2021/08/14 03:41:48;;;;;;;23.63;8.32;;;15.40;99.90;;;;;;5081552;28;20036;-73
2021/08/14 03:44:14;;;;;;;24.63;9.65;;;15.40;99.90;;;;;;5071436;28;20482;-74
2021/08/14 03:46:40;;;;;;;25.65;8.40;;;15.40;99.90;;;;;;5065996;28;20066;-73
2021/08/14 03:49:06;;;;;;;24.25;9.13;;;15.40;99.90;;;;;;5073888;28;20128;-73
2021/08/14 03:51:32;;;;;;;26.92;9.30;;;15.40;99.90;;;;;;5076472;28;20499;-73
2021/08/14 03:53:59;;;;;;;22.65;8.35;;;15.40;99.90;;;;;;5070163;28;20046;-73
2021/08/14 03:56:24;;;;;;;20.02;8.43;;;15.40;99.90;;;;;;5073862;28;20040;-73
2021/08/14 03:58:51;;;;;;;23.48;9.13;;;15.40;99.90;;;;;;5053977;28;20383;-73
2021/08/14 04:01:17;;;;;;;21.10;8.25;;;15.40;99.90;;;;;;5078221;28;20526;-73
2021/08/14 04:03:42;;;;;;;24.63;10.80;;;15.40;99.90;;;;;;5072100;28;20051;-73
2021/08/14 04:06:12;;;;;;;23.10;9.52;;;15.40;99.90;;;;;;5062323;28;20040;-72
2021/08/14 04:08:41;;;;;;;19.77;8.63;;;15.40;99.90;;;;;;5062567;28;20048;-72
2021/08/14 04:11:07;;;;;;;24.92;9.35;;;15.40;99.90;;;;;;5080222;28;20405;-73
2021/08/14 04:13:39;;;;;;;23.77;9.95;;;15.40;99.90;;;;;;5084990;28;20043;-74
2021/08/14 04:16:05;;;;;;;20.13;7.90;;;15.40;99.90;;;;;;5078251;28;20044;-74
2021/08/14 04:18:31;;;;;;;22.42;9.05;;;15.40;99.90;;;;;;5082429;28;20039;-74
2021/08/14 04:20:57;;;;;;;21.40;9.75;;;15.40;99.90;;;;;;5075161;28;20075;-74
2021/08/14 04:23:23;;;;;;;22.58;8.95;;;15.40;99.90;;;;;;5083087;28;20036;-74
2021/08/14 04:25:52;;;;;;;24.73;9.52;;;15.40;99.90;;;;;;5077925;28;20039;-74
2021/08/14 04:28:17;;;;;;;22.08;8.23;;;15.40;99.90;;;;;;5063971;28;20213;-74
2021/08/14 04:30:47;;;;;;;21.80;8.82;;;15.30;99.90;;;;;;5077520;28;20040;-74
2021/08/14 04:33:13;;;;;;;21.48;8.40;;;15.40;99.90;;;;;;5059200;28;20034;-73
2021/08/14 04:35:40;;;;;;;24.38;8.43;;;15.40;99.90;;;;;;5079953;28;20056;-75
2021/08/14 04:38:09;;;;;;;23.77;8.95;;;15.40;99.90;;;;;;5065407;28;20149;-73
2021/08/14 04:40:36;;;;;;;20.98;8.52;;;15.40;99.90;;;;;;5070164;28;20503;-74
2021/08/14 04:43:05;;;;;;;21.77;8.65;;;15.40;99.90;;;;;;5083124;28;20109;-74
2021/08/14 04:45:35;;;;;;;19.48;8.55;;;15.40;99.90;;;;;;5080086;28;20089;-75
2021/08/14 04:48:01;;;;;;;22.30;8.27;;;15.40;99.90;;;;;;5076268;28;20055;-75
2021/08/14 04:50:27;;;;;;;22.23;8.38;;;15.30;99.90;;;;;;5072682;28;20071;-76
2021/08/14 04:52:53;;;;;;;20.88;8.40;;;15.30;99.90;;;;;;5081218;28;20668;-74
2021/08/14 04:55:21;;;;;;;21.13;8.18;;;15.30;99.90;;;;;;5060293;28;20110;-73
2021/08/14 04:57:47;;;;;;;24.75;9.40;;;15.30;99.90;;;;;;5073123;28;20090;-73
2021/08/14 05:00:19;;;;;;;26.02;9.27;;;15.30;99.90;;;;;;5072777;28;20029;-73
2021/08/14 05:02:45;;;;;;;19.50;8.13;;;15.30;99.90;;;;;;5075249;28;20036;-74
2021/08/14 05:05:11;;;;;;;22.67;9.70;;;15.30;99.90;;;;;;5063222;28;20059;-72
2021/08/14 05:07:37;;;;;;;28.85;9.05;;;15.30;99.90;;;;;;5063498;28;20039;-72
2021/08/14 05:10:04;;;;;;;19.75;8.35;;;15.30;99.90;;;;;;5077674;28;20036;-73
2021/08/14 05:12:31;;;;;;;22.40;8.80;;;15.30;99.90;;;;;;5078926;28;20060;-72
2021/08/14 05:14:57;;;;;;;18.65;8.82;;;15.30;99.90;;;;;;5078466;28;20098;-74
2021/08/14 05:17:23;;;;;;;28.23;9.50;;;15.30;99.90;;;;;;5065300;28;20431;-74
2021/08/14 05:19:49;;;;;;;22.08;8.82;;;15.30;99.90;;;;;;5074235;28;20033;-76
2021/08/14 05:22:15;;;;;;;19.48;9.05;;;15.30;99.90;;;;;;5074731;28;20032;-73
2021/08/14 05:24:41;;;;;;;22.20;9.63;;;15.30;99.90;;;;;;5077345;28;20052;-74
2021/08/14 05:27:07;;;;;;;24.00;8.98;;;15.40;99.90;;;;;;5071401;28;20055;-74
2021/08/14 05:29:33;;;;;;;24.13;9.63;;;15.40;99.90;;;;;;5083669;28;20047;-74
2021/08/14 05:31:59;;;;;;;22.25;8.95;;;15.40;99.90;;;;;;5067068;28;20059;-74
2021/08/14 05:34:25;;;;;;;24.58;9.57;;;15.40;99.90;;;;;;5068116;28;20048;-73
2021/08/14 05:36:51;;;;;;;29.50;10.98;;;15.50;99.90;;;;;;5065807;28;20552;-74
2021/08/14 05:39:17;;;;;;;25.33;10.27;;;15.50;99.90;;;;;;5077114;28;20471;-74
2021/08/14 05:41:47;;;;;;;24.45;9.98;;;15.50;99.90;;;;;;5078739;28;20044;-74
2021/08/14 05:44:19;;;;;;;22.02;9.35;;;15.60;99.90;;;;;;5058741;28;20063;-73
2021/08/14 05:46:48;;;;;;;25.33;9.77;;;15.60;99.90;;;;;;5087079;28;20044;-74
2021/08/14 05:49:14;;;;;;;26.50;10.10;;;15.60;99.90;;;;;;5073743;28;20040;-73
2021/08/14 05:51:41;;;;;;;22.67;9.85;;;15.70;99.90;;;;;;5075496;28;20426;-74
2021/08/14 05:54:07;;;;;;;21.23;9.88;;;15.80;99.90;;;;;;5079959;28;20127;-73
2021/08/14 05:56:34;;;;;;;22.33;10.15;;;15.80;99.90;;;;;;5062689;28;20090;-74
2021/08/14 05:58:59;;;;;;;24.02;10.07;;;15.90;99.90;;;;;;5069909;28;20045;-74
2021/08/14 06:01:25;;;;;;;28.20;11.30;;;15.90;99.90;;;;;;5070079;28;20051;-73
2021/08/14 06:03:51;;;;;;;27.35;11.20;;;16.00;99.90;;;;;;5082769;28;20040;-74
2021/08/14 06:06:17;;;;;;;24.55;11.00;;;16.00;99.90;;;;;;5077328;28;20609;-74
2021/08/14 06:08:43;;;;;;;25.63;11.20;;;16.20;99.90;;;;;;5069105;28;20072;-74
2021/08/14 06:11:09;;;;;;;26.27;10.77;;;16.20;99.90;;;;;;5086284;28;20115;-74
2021/08/14 06:13:35;;;;;;;26.88;11.52;;;16.30;99.90;;;;;;5084250;28;20043;-74
2021/08/14 06:16:03;;;;;;;28.13;11.07;;;16.40;99.90;;;;;;5087339;28;20109;-74
2021/08/14 06:18:29;;;;;;;21.98;10.32;;;16.40;99.90;;;;;;5087732;28;20043;-74
2021/08/14 06:20:55;;;;;;;24.92;11.18;;;16.50;99.90;;;;;;5079720;28;20043;-74
2021/08/14 06:23:21;;;;;;;32.00;11.95;;;16.50;99.90;;;;;;5076006;28;20052;-75
2021/08/14 06:25:50;;;;;;;24.58;11.13;;;16.60;99.90;;;;;;5085111;28;20044;-74
2021/08/14 06:28:16;;;;;;;26.83;11.90;;;16.70;99.90;;;;;;5065123;28;20061;-76
2021/08/14 06:30:44;;;;;;;24.00;12.05;;;16.80;99.90;;;;;;5078978;28;20494;-76
2021/08/14 06:33:10;;;;;;;23.27;11.15;;;16.90;99.90;;;;;;5075761;28;20059;-74
2021/08/14 06:35:39;;;;;;;24.70;12.83;;;17.00;99.90;;;;;;5075553;28;20048;-74
2021/08/14 06:38:06;;;;;;;30.77;11.82;;;17.20;99.90;;;;;;5072171;28;20667;-74
2021/08/14 06:40:32;;;;;;;25.98;11.23;;;17.30;99.90;;;;;;5077721;28;20119;-74
2021/08/14 06:42:57;;;;;;;32.53;13.40;;;17.30;99.90;;;;;;5075707;28;20541;-74
2021/08/14 06:45:23;;;;;;;22.25;11.13;;;17.40;99.90;;;;;;5079499;28;20040;-74
2021/08/14 06:47:53;;;;;;;33.85;12.07;;;17.40;99.90;;;;;;5060729;28;20115;-75
2021/08/14 06:50:19;;;;;;;28.75;11.98;;;17.40;99.90;;;;;;5073997;28;20032;-74
2021/08/14 06:52:45;;;;;;;29.00;12.75;;;17.40;99.90;;;;;;5041624;28;20101;-77
2021/08/14 06:55:12;;;;;;;33.40;12.82;;;17.40;99.90;;;;;;5070850;28;20104;-76
2021/08/14 06:57:38;;;;;;;21.45;11.40;;;17.40;99.90;;;;;;5071261;28;20036;-75
2021/08/14 07:00:05;;;;;;;31.27;14.50;;;17.50;99.90;;;;;;5068222;28;20203;-75
2021/08/14 07:02:44;;;;;;;32.33;13.20;;;17.50;99.90;;;;;;5076164;28;20521;-75
2021/08/14 07:05:10;;;;;;;27.37;14.40;;;17.60;99.90;;;;;;5074685;28;20035;-75
2021/08/14 07:07:37;;;;;;;28.15;13.02;;;17.60;99.90;;;;;;5048441;28;20047;-74
2021/08/14 07:10:04;;;;;;;29.20;13.15;;;17.60;99.90;;;;;;5068377;28;20502;-73
2021/08/14 07:12:33;;;;;;;26.40;14.23;;;17.70;99.90;;;;;;5061244;28;20064;-74
2021/08/14 07:14:59;;;;;;;30.75;13.15;;;17.70;99.90;;;;;;5078100;28;20529;-73
2021/08/14 07:17:28;;;;;;;25.85;13.40;;;17.70;99.90;;;;;;5069792;28;20128;-73
2021/08/14 07:19:54;;;;;;;28.80;12.75;;;17.90;99.90;;;;;;5072743;28;20032;-73
2021/08/14 07:22:20;;;;;;;28.52;14.68;;;18.10;99.90;;;;;;5071887;28;20393;-73
2021/08/14 07:24:46;;;;;;;27.77;12.88;;;18.20;99.90;;;;;;5067705;28;20495;-73
2021/08/14 07:27:12;;;;;;;28.92;12.80;;;18.40;99.90;;;;;;5057407;28;20111;-73
2021/08/14 07:29:41;;;;;;;28.25;13.77;;;18.60;99.90;;;;;;5057721;28;20567;-74
2021/08/14 07:32:07;;;;;;;32.58;12.63;;;18.60;99.90;;;;;;5075529;28;20044;-74
2021/08/14 07:34:33;;;;;;;24.95;12.35;;;18.60;99.90;;;;;;5076389;28;20093;-73
2021/08/14 07:37:03;;;;;;;26.65;11.88;;;18.60;99.90;;;;;;5054335;28;20131;-73
2021/08/14 07:39:29;;;;;;;29.02;13.00;;;18.60;99.90;;;;;;5073554;28;20101;-74
2021/08/14 07:41:55;;;;;;;25.85;11.95;;;18.60;99.90;;;;;;5071183;28;20368;-74
2021/08/14 07:44:21;;;;;;;25.20;12.13;;;18.70;99.90;;;;;;5078279;28;20032;-73
2021/08/14 07:46:48;;;;;;;28.35;10.93;;;18.90;99.90;;;;;;5074042;28;20118;-73
2021/08/14 07:49:13;;;;;;;28.05;11.45;;;19.10;99.90;;;;;;5073697;28;20040;-74
2021/08/14 07:51:39;;;;;;;23.67;11.02;;;19.20;99.90;;;;;;5041999;28;20051;-74
2021/08/14 07:54:05;;;;;;;24.45;10.68;;;19.30;99.90;;;;;;5068432;28;20044;-74
2021/08/14 07:56:31;;;;;;;26.00;11.07;;;19.40;99.90;;;;;;5051374;28;20517;-74
2021/08/14 07:58:57;;;;;;;26.45;9.95;;;19.50;99.90;;;;;;5064647;28;20650;-77
2021/08/14 08:01:23;;;;;;;25.60;10.38;;;19.60;99.90;;;;;;5076753;28;20519;-77
2021/08/14 08:03:49;;;;;;;24.60;10.70;;;19.60;99.90;;;;;;5061787;28;20038;-77
2021/08/14 08:06:15;;;;;;;24.98;9.52;;;19.60;99.90;;;;;;5058795;28;20048;-74
2021/08/14 08:08:41;;;;;;;23.67;8.95;;;19.60;99.90;;;;;;5074647;28;20566;-75
2021/08/14 08:11:06;;;;;;;23.13;9.63;;;19.60;99.90;;;;;;5055092;28;20040;-74
2021/08/14 08:13:33;;;;;;;23.52;8.43;;;19.50;99.90;;;;;;5061316;28;20043;-73
2021/08/14 08:15:59;;;;;;;23.55;8.80;;;19.50;99.90;;;;;;5072016;28;20036;-74
2021/08/14 08:18:25;;;;;;;17.63;8.13;;;19.70;99.90;;;;;;5082661;28;20562;-73
2021/08/14 08:20:51;;;;;;;18.60;7.32;;;20.00;99.90;;;;;;5076514;28;20045;-73
2021/08/14 08:23:18;;;;;;;18.02;7.28;;;20.20;99.80;;;;;;5059100;28;20546;-73
2021/08/14 08:25:44;;;;;;;22.00;7.00;;;20.20;99.10;;;;;;5078565;28;20048;-73
2021/08/14 08:28:10;;;;;;;21.35;7.30;;;20.30;98.80;;;;;;5060971;28;20032;-73
2021/08/14 08:30:36;;;;;;;19.38;6.72;;;20.30;98.50;;;;;;5073754;28;20040;-73
2021/08/14 08:33:02;;;;;;;18.10;6.32;;;20.30;98.80;;;;;;5080301;28;20051;-74
2021/08/14 08:35:28;;;;;;;19.15;6.15;;;20.30;98.10;;;;;;5084160;28;20064;-74
2021/08/14 08:37:54;;;;;;;15.13;5.85;;;20.30;98.20;;;;;;5077477;28;20062;-74
2021/08/14 08:40:20;;;;;;;18.10;6.38;;;20.40;98.50;;;;;;5079857;28;20491;-74
2021/08/14 08:42:47;;;;;;;14.10;6.88;;;20.60;98.00;;;;;;5078724;28;20067;-73
2021/08/14 08:45:14;;;;;;;15.27;6.55;;;20.70;98.10;;;;;;5070636;28;20394;-74
2021/08/14 08:47:50;;;;;;;15.10;5.13;;;20.80;98.10;;;;;;5081679;28;20117;-73
2021/08/14 08:50:16;;;;;;;12.43;5.22;;;20.90;96.50;;;;;;5073851;28;20044;-73
2021/08/14 08:52:45;;;;;;;14.23;5.32;;;20.90;96.60;;;;;;5065418;28;20040;-74
2021/08/14 08:55:13;;;;;;;16.58;6.00;;;21.00;96.10;;;;;;5071690;28;20123;-73
2021/08/14 08:57:39;;;;;;;16.52;5.75;;;21.10;96.20;;;;;;5084132;28;20041;-74
2021/08/14 09:00:08;;;;;;;14.48;5.00;;;21.30;96.10;;;;;;5094139;28;20128;-74
2021/08/14 09:02:35;;;;;;;13.48;4.75;;;21.50;95.30;;;;;;5052327;28;20509;-75
2021/08/14 09:05:18;;;;;;;13.63;5.30;;;21.80;94.80;;;;;;5082919;28;20513;-73
2021/08/14 09:07:47;;;;;;;13.93;5.30;;;22.00;95.40;;;;;;5079515;28;20042;-74
2021/08/14 09:10:19;;;;;;;15.48;6.10;;;22.20;93.90;;;;;;5085833;28;20032;-77
2021/08/14 09:12:47;;;;;;;14.02;5.45;;;22.20;93.10;;;;;;5076394;28;20119;-76
2021/08/14 09:15:35;;;;;;;13.80;5.82;;;22.20;92.80;;;;;;5079060;28;20131;-74
2021/08/14 09:18:03;;;;;;;12.73;5.95;;;22.10;93.20;;;;;;5081734;28;20045;-73
2021/08/14 09:20:30;;;;;;;15.10;7.38;;;21.80;92.50;;;;;;5075913;28;20043;-74
2021/08/14 09:23:15;;;;;;;15.00;6.72;;;21.60;92.70;;;;;;5080048;28;20040;-74
2021/08/14 09:25:49;;;;;;;14.63;5.90;;;21.50;92.90;;;;;;5077637;28;20047;-74
2021/08/14 09:28:17;;;;;;;16.80;6.55;;;21.50;93.30;;;;;;5080554;28;20108;-74
2021/08/14 09:30:54;;;;;;;17.20;6.50;;;21.60;93.20;;;;;;5080022;28;20037;-74
2021/08/14 09:33:30;;;;;;;16.05;7.07;;;21.60;93.20;;;;;;5084732;28;20205;-73
2021/08/14 09:36:05;;;;;;;18.88;7.15;;;21.50;93.20;;;;;;5080300;28;20155;-73
2021/08/14 09:38:46;;;;;;;12.90;5.45;;;21.60;93.50;;;;;;5085159;28;20094;-73
2021/08/14 09:41:13;;;;;;;13.25;5.88;;;21.50;93.40;;;;;;5081277;28;20093;-74
2021/08/14 09:43:40;;;;;;;15.90;6.07;;;21.50;94.30;;;;;;5082488;28;20040;-74
2021/08/14 09:46:06;;;;;;;13.93;6.30;;;21.40;94.40;;;;;;5084947;28;20036;-74
2021/08/14 09:48:32;;;;;;;15.73;6.78;;;21.40;94.20;;;;;;5067670;28;20540;-74
2021/08/14 09:50:58;;;;;;;13.57;6.15;;;21.30;93.60;;;;;;5070613;28;20036;-73
2021/08/14 09:53:29;;;;;;;18.20;6.47;;;21.20;93.80;;;;;;5063738;28;20237;-73
2021/08/14 09:56:11;;;;;;;16.05;7.07;;;21.10;94.30;;;;;;5083140;28;20545;-74
2021/08/14 09:58:39;;;;;;;15.48;7.00;;;21.00;94.20;;;;;;5095471;28;21603;-74
2021/08/14 10:01:11;;;;;;;17.20;6.65;;;20.90;93.80;;;;;;5069640;28;20090;-73
2021/08/14 10:03:38;;;;;;;17.05;6.65;;;20.90;94.10;;;;;;5078261;28;20068;-74
2021/08/14 10:06:09;;;;;;;17.17;7.13;;;20.80;94.30;;;;;;5073770;28;20041;-74
2021/08/14 10:08:35;;;;;;;16.58;7.05;;;20.80;94.70;;;;;;5079819;28;20036;-73
2021/08/14 10:11:06;;;;;;;16.15;6.90;;;20.90;94.60;;;;;;5060294;28;20136;-74
2021/08/14 10:13:33;;;;;;;20.48;7.00;;;20.90;94.40;;;;;;5077321;28;20479;-73
2021/08/14 10:15:59;;;;;;;22.17;7.45;;;20.90;94.90;;;;;;5072557;28;20072;-73
2021/08/14 10:18:26;;;;;;;14.88;7.07;;;21.00;94.70;;;;;;5082087;28;20079;-73
2021/08/14 10:20:55;;;;;;;15.73;7.18;;;20.90;94.60;;;;;;5076793;28;20032;-73
2021/08/14 10:23:23;;;;;;;20.95;7.78;;;21.00;94.80;;;;;;5055643;28;20090;-73
2021/08/14 10:26:00;;;;;;;20.45;7.80;;;21.00;94.80;;;;;;5074374;28;20032;-74
2021/08/14 10:28:48;;;;;;;18.05;7.50;;;21.20;95.10;;;;;;5080119;28;20089;-73
2021/08/14 10:31:29;;;;;;;19.40;7.80;;;21.40;95.00;;;;;;5073707;28;20045;-73
2021/08/14 10:33:59;;;;;;;16.00;7.22;;;21.50;94.70;;;;;;5078833;28;20037;-73
2021/08/14 10:36:27;;;;;;;16.98;7.70;;;21.40;93.80;;;;;;5076944;28;20048;-72
2021/08/14 10:38:54;;;;;;;18.33;7.93;;;21.20;94.20;;;;;;5074773;28;20055;-74
2021/08/14 10:41:35;;;;;;;16.17;7.60;;;21.10;94.30;;;;;;5079033;28;20127;-76
2021/08/14 10:44:03;;;;;;;17.23;7.30;;;21.00;94.50;;;;;;5083527;28;20072;-75
2021/08/14 10:46:44;;;;;;;16.50;8.07;;;21.00;94.70;;;;;;5083361;28;20044;-78
2021/08/14 10:49:12;;;;;;;17.50;8.00;;;21.00;94.90;;;;;;5081237;28;20135;-76
2021/08/14 10:51:53;;;;;;;17.40;7.70;;;20.90;95.10;;;;;;5075332;28;20071;-76
2021/08/14 10:54:28;;;;;;;20.70;7.80;;;20.90;95.40;;;;;;5082160;28;20044;-77
2021/08/14 10:56:56;;;;;;;22.08;8.27;;;21.00;95.40;;;;;;5079182;28;20118;-73
2021/08/14 10:59:37;;;;;;;18.45;7.97;;;21.00;95.40;;;;;;5080718;28;20090;-77
2021/08/14 11:02:06;;;;;;;21.58;7.80;;;21.20;95.30;;;;;;5075940;28;20048;-77
2021/08/14 11:04:56;;;;;;;18.48;7.90;;;21.40;95.50;;;;;;5077458;28;20063;-75
2021/08/14 11:07:25;;;;;;;17.73;7.55;;;21.60;94.40;;;;;;5069558;28;20135;-77
2021/08/14 11:09:53;;;;;;;17.73;7.78;;;21.60;94.40;;;;;;5072094;28;20554;-74
2021/08/14 11:12:39;;;;;;;18.13;7.63;;;21.60;94.60;;;;;;5072058;28;20066;-74
2021/08/14 11:15:19;;;;;;;21.75;8.05;;;21.70;94.60;;;;;;5081297;28;20048;-74
2021/08/14 11:17:48;;;;;;;19.20;7.70;;;21.90;94.10;;;;;;5084773;28;20367;-74
2021/08/14 11:20:20;;;;;;;19.95;8.18;;;21.90;93.90;;;;;;5076360;28;20045;-74
2021/08/14 11:22:48;;;;;;;18.90;7.72;;;21.80;93.70;;;;;;5076209;28;20210;-74
2021/08/14 11:25:48;;;;;;;15.20;7.63;;;21.80;93.60;;;;;;5082370;28;20395;-74
2021/08/14 11:28:23;;;;;;;22.80;8.75;;;21.80;93.80;;;;;;5064984;28;20051;-74
2021/08/14 11:30:58;;;;;;;22.40;7.90;;;21.80;93.80;;;;;;5073751;28;20033;-74
2021/08/14 11:33:25;;;;;;;17.55;7.07;;;21.90;93.90;;;;;;5072710;28;20044;-74
2021/08/14 11:36:27;;;;;;;15.70;7.07;;;22.00;94.10;;;;;;5072346;28;20139;-74
2021/08/14 11:39:01;;;;;;;14.57;7.18;;;22.10;94.00;;;;;;5055130;28;20505;-74
2021/08/14 11:41:30;;;;;;;19.05;7.05;;;22.00;92.90;;;;;;5077266;28;20667;-75
2021/08/14 11:44:03;;;;;;;17.92;6.38;;;22.00;92.60;;;;;;5045882;28;20161;-75
2021/08/14 11:46:30;;;;;;;18.55;6.95;;;21.90;92.70;;;;;;5066143;28;20483;-74
2021/08/14 11:49:01;;;;;;;18.35;6.32;;;22.00;92.70;;;;;;5070462;28;20044;-73
2021/08/14 11:51:29;;;;;;;17.55;6.70;;;22.00;93.00;;;;;;5074535;28;20036;-74
2021/08/14 11:54:11;;;;;;;17.70;6.85;;;21.90;92.90;;;;;;5082566;28;20055;-74
2021/08/14 11:56:38;;;;;;;19.52;7.32;;;21.90;92.70;;;;;;5088355;28;22059;-75
2021/08/14 11:59:05;;;;;;;14.57;6.78;;;21.90;93.10;;;;;;5075672;28;20036;-74
2021/08/14 12:01:31;;;;;;;17.70;7.70;;;21.90;93.00;;;;;;5074135;28;20668;-74
2021/08/14 12:03:59;;;;;;;12.65;6.07;;;21.90;92.90;;;;;;5079925;28;20051;-74
2021/08/14 12:06:33;;;;;;;18.67;7.45;;;21.80;93.20;;;;;;5077889;28;20879;-74
2021/08/14 12:09:01;;;;;;;22.13;7.65;;;21.90;93.60;;;;;;5079411;28;20051;-74
2021/08/14 12:11:28;;;;;;;20.98;7.43;;;21.90;93.40;;;;;;5073903;28;20052;-74
2021/08/14 12:14:18;;;;;;;21.02;9.45;;;21.90;93.50;;;;;;5082008;28;20070;-74
2021/08/14 12:16:46;;;;;;;20.30;9.38;;;21.80;93.60;;;;;;5084253;28;20048;-74
2021/08/14 12:19:20;;;;;;;21.65;9.57;;;21.80;94.20;;;;;;5080487;28;20036;-74
2021/08/14 12:21:48;;;;;;;18.38;9.13;;;21.70;93.80;;;;;;5083065;28;20055;-74
2021/08/14 12:24:15;;;;;;;16.75;8.18;;;21.80;94.80;;;;;;5067251;28;20039;-75
2021/08/14 12:26:41;;;;;;;17.35;7.32;;;21.90;94.50;;;;;;5058802;28;20045;-75
2021/08/14 12:29:22;;;;;;;17.00;7.05;;;21.90;94.30;;;;;;5069313;28;20403;-75
2021/08/14 12:31:48;;;;;;;17.60;7.80;;;21.80;93.80;;;;;;5081740;28;20063;-74
2021/08/14 12:34:26;;;;;;;14.98;7.00;;;21.70;93.80;;;;;;5078249;28;20494;-75
2021/08/14 12:37:11;;;;;;;16.67;6.57;;;21.50;94.10;;;;;;5074043;28;20048;-75
2021/08/14 12:39:54;;;;;;;14.75;6.15;;;21.40;94.10;;;;;;5076646;28;20060;-74
2021/08/14 12:42:34;;;;;;;12.10;5.53;;;21.40;94.20;;;;;;5079526;28;20061;-74